Time;durP1;ratioP1;P1;durP2;ratioP2;P2;SDS_P1;SDS_P2;PMS_P1;PMS_P2;Temp;Humidity;BMP_temperature;BMP_pressure;BME280_temperature;BME280_humidity;BME280_pressure;Samples;Min_cycle;Max_cycle;Signal;HPM_P1;HPM_P2
2023/10/01 00:02:21;;;;;;;15.63;7.30;;;15.50;99.90;;;;;;6241211;23;20012;-75
2023/10/01 00:04:46;;;;;;;19.70;7.72;;;15.50;99.90;;;;;;6240817;23;20071;-75
2023/10/01 00:07:12;;;;;;;14.93;7.70;;;15.50;99.90;;;;;;6240770;23;20028;-75
2023/10/01 00:09:38;;;;;;;15.43;7.07;;;15.50;99.90;;;;;;6241729;23;20471;-74
2023/10/01 00:12:04;;;;;;;15.25;7.03;;;15.50;99.90;;;;;;6213517;23;20054;-74
2023/10/01 00:14:30;;;;;;;19.27;8.82;;;15.40;99.90;;;;;;6213925;23;20027;-75
2023/10/01 00:16:56;;;;;;;13.68;7.20;;;15.50;99.90;;;;;;6241220;23;20012;-75
2023/10/01 00:19:22;;;;;;;18.92;7.43;;;15.40;99.90;;;;;;6213646;23;20429;-75
2023/10/01 00:21:47;;;;;;;14.13;7.07;;;15.30;99.90;;;;;;6242374;23;20024;-75
2023/10/01 00:24:13;;;;;;;18.77;7.88;;;15.30;99.90;;;;;;6243159;23;20143;-74
2023/10/01 00:26:39;;;;;;;11.77;7.55;;;15.30;99.90;;;;;;6215850;23;20024;-75
2023/10/01 00:29:04;;;;;;;12.38;7.30;;;15.20;99.90;;;;;;6243202;23;20020;-75
2023/10/01 00:31:31;;;;;;;15.98;8.25;;;15.30;99.90;;;;;;6243235;23;20345;-75
2023/10/01 00:33:56;;;;;;;17.17;7.93;;;15.30;99.90;;;;;;6215988;23;20058;-75
2023/10/01 00:36:23;;;;;;;14.30;8.55;;;15.20;99.90;;;;;;6191059;23;20437;-74
2023/10/01 00:38:49;;;;;;;11.95;7.50;;;15.20;99.90;;;;;;6243743;23;20038;-75
2023/10/01 00:41:15;;;;;;;15.82;8.93;;;15.20;99.90;;;;;;6216421;23;20488;-75
2023/10/01 00:43:41;;;;;;;19.60;7.18;;;15.20;99.90;;;;;;6216286;23;20058;-73
2023/10/01 00:46:08;;;;;;;16.52;8.27;;;15.20;99.90;;;;;;6216349;23;20020;-74
2023/10/01 00:48:36;;;;;;;16.00;8.00;;;15.20;99.90;;;;;;6216487;23;20083;-75
2023/10/01 00:51:04;;;;;;;16.42;8.43;;;15.10;99.90;;;;;;6243234;23;20012;-75
2023/10/01 00:53:31;;;;;;;16.50;8.10;;;15.10;99.90;;;;;;6215718;23;20028;-75
2023/10/01 00:55:59;;;;;;;15.50;8.18;;;15.10;99.90;;;;;;6242388;23;20024;-74
2023/10/01 00:58:25;;;;;;;11.82;7.13;;;15.10;99.90;;;;;;6242925;23;20023;-75
2023/10/01 01:00:52;;;;;;;16.10;7.63;;;15.10;99.90;;;;;;6242506;23;20012;-73
2023/10/01 01:03:19;;;;;;;17.38;8.60;;;15.10;99.90;;;;;;6243237;23;20671;-74
2023/10/01 01:05:57;;;;;;;12.52;7.82;;;15.10;99.90;;;;;;6242952;23;20028;-75
2023/10/01 01:08:33;;;;;;;16.98;8.25;;;15.10;99.90;;;;;;6242605;23;20024;-74
2023/10/01 01:11:01;;;;;;;14.38;7.72;;;15.10;99.90;;;;;;6243017;23;20024;-75
2023/10/01 01:13:29;;;;;;;16.17;8.70;;;15.10;99.90;;;;;;6215635;23;20020;-74
2023/10/01 01:15:57;;;;;;;15.88;8.07;;;15.10;99.90;;;;;;6244388;23;20024;-75
2023/10/01 01:18:26;;;;;;;16.40;7.45;;;15.10;99.90;;;;;;6218772;23;20016;-74
2023/10/01 01:20:58;;;;;;;14.68;8.02;;;15.10;99.90;;;;;;6243839;23;20024;-75
2023/10/01 01:23:24;;;;;;;;;;;15.10;99.90;;;;;;6216133;23;20035;-75
2023/10/01 01:25:54;;;;;;;17.10;8.25;;;15.10;99.90;;;;;;6242390;23;20302;-75
2023/10/01 01:28:27;;;;;;;14.73;8.40;;;15.10;99.90;;;;;;6242582;23;20490;-74
2023/10/01 01:30:53;;;;;;;15.52;7.78;;;15.20;99.90;;;;;;6242487;23;20017;-74
2023/10/01 01:33:26;;;;;;;15.82;8.48;;;15.10;99.90;;;;;;6216054;23;20022;-74
2023/10/01 01:35:54;;;;;;;;;;;15.10;99.90;;;;;;6216124;23;20095;-74
2023/10/01 01:38:22;;;;;;;14.25;9.35;;;15.10;99.90;;;;;;6215235;23;19984;-74
2023/10/01 01:40:51;;;;;;;14.55;8.85;;;15.10;99.90;;;;;;6242909;23;20024;-75
2023/10/01 01:43:23;;;;;;;14.38;8.43;;;15.10;99.90;;;;;;6242432;23;20047;-73
2023/10/01 01:45:55;;;;;;;16.52;9.10;;;15.10;99.90;;;;;;6242260;23;20024;-74
2023/10/01 01:48:30;;;;;;;16.42;9.18;;;15.10;99.90;;;;;;6242740;23;20348;-74
2023/10/01 01:51:00;;;;;;;17.77;8.75;;;15.10;99.90;;;;;;6215371;23;20055;-75
2023/10/01 01:53:27;;;;;;;20.38;9.57;;;15.20;99.90;;;;;;6242116;23;20023;-74
2023/10/01 01:55:56;;;;;;;15.70;8.88;;;15.20;99.90;;;;;;6242806;23;20020;-74
2023/10/01 01:58:26;;;;;;;20.13;10.18;;;15.10;99.90;;;;;;6242564;23;20353;-75
2023/10/01 02:01:01;;;;;;;15.25;8.77;;;15.20;99.90;;;;;;6190809;23;20095;-74
2023/10/01 02:03:33;;;;;;;18.38;10.60;;;15.20;99.90;;;;;;6242630;23;20440;-75
2023/10/01 02:06:00;;;;;;;16.88;9.45;;;15.20;99.90;;;;;;6215233;23;20040;-74
2023/10/01 02:08:44;;;;;;;15.45;9.45;;;15.20;99.90;;;;;;6190336;23;20016;-74
2023/10/01 02:11:10;;;;;;;16.23;10.02;;;15.20;99.90;;;;;;6242821;23;20048;-74
2023/10/01 02:13:41;;;;;;;18.17;9.65;;;15.20;99.90;;;;;;6242247;23;20024;-75
2023/10/01 02:16:19;;;;;;;16.80;10.00;;;15.20;99.90;;;;;;6242707;23;20052;-75
2023/10/01 02:24:22;;;;;;;18.88;10.13;;;15.20;99.90;;;;;;6242522;23;20031;-75
2023/10/01 02:26:52;;;;;;;17.13;10.63;;;15.20;99.90;;;;;;6242711;23;20008;-73
2023/10/01 02:29:24;;;;;;;18.05;10.35;;;15.20;99.90;;;;;;6215396;23;20027;-75
2023/10/01 02:31:57;;;;;;;17.73;11.57;;;15.20;99.90;;;;;;6242818;23;20024;-74
2023/10/01 02:34:24;;;;;;;18.10;10.65;;;15.20;99.90;;;;;;6242950;23;20078;-75
2023/10/01 02:36:50;;;;;;;18.98;11.00;;;15.20;99.90;;;;;;6242150;23;20475;-74
2023/10/01 02:39:21;;;;;;;17.38;11.45;;;15.20;99.90;;;;;;6242352;23;20022;-75
2023/10/01 02:44:34;;;;;;;22.08;11.45;;;15.20;99.90;;;;;;6242846;23;20052;-75
2023/10/01 02:47:20;;;;;;;21.17;11.90;;;15.20;99.90;;;;;;6242622;23;20047;-75
2023/10/01 02:49:51;;;;;;;18.55;10.30;;;15.20;99.90;;;;;;6215054;23;20055;-74
2023/10/01 02:52:19;;;;;;;20.93;11.67;;;15.20;99.90;;;;;;6242326;23;20016;-74
2023/10/01 02:54:54;;;;;;;17.30;11.20;;;15.20;99.90;;;;;;6242265;23;20266;-75
2023/10/01 02:57:23;;;;;;;21.73;11.77;;;15.20;99.90;;;;;;6241746;23;20016;-75
2023/10/01 03:02:38;;;;;;;17.35;11.38;;;15.20;99.90;;;;;;6241770;23;20440;-74
2023/10/01 03:05:16;;;;;;;21.65;11.23;;;15.20;99.90;;;;;;6241311;23;20024;-75
2023/10/01 03:07:45;;;;;;;20.10;11.82;;;15.20;99.90;;;;;;6214536;23;20336;-75
2023/10/01 03:10:24;;;;;;;18.20;11.00;;;15.20;99.90;;;;;;6241406;23;20051;-74
2023/10/01 03:12:53;;;;;;;21.98;11.18;;;15.20;99.90;;;;;;6214574;23;20031;-75
2023/10/01 03:15:25;;;;;;;25.25;11.85;;;15.10;99.90;;;;;;6241775;23;20098;-74
2023/10/01 03:17:57;;;;;;;17.60;10.88;;;15.10;99.90;;;;;;6241681;23;20146;-75
2023/10/01 03:26:04;;;;;;;18.95;10.82;;;15.10;99.90;;;;;;6241639;23;20031;-74
2023/10/01 03:31:25;;;;;;;18.33;10.93;;;15.20;99.90;;;;;;6241540;23;20020;-74
2023/10/01 03:33:53;;;;;;;19.80;10.45;;;15.10;99.90;;;;;;6241192;23;20024;-74
2023/10/01 03:36:28;;;;;;;16.45;10.32;;;15.20;99.90;;;;;;6241323;23;20548;-74
2023/10/01 03:39:25;;;;;;;19.20;10.15;;;15.20;99.90;;;;;;6241532;23;20451;-75
2023/10/01 03:41:54;;;;;;;22.60;10.27;;;15.20;99.90;;;;;;6241010;23;20363;-75
2023/10/01 03:47:08;;;;;;;18.88;9.52;;;15.20;99.90;;;;;;6241481;23;20099;-74
2023/10/01 03:49:44;;;;;;;17.92;9.80;;;15.20;99.90;;;;;;6241572;23;20016;-75
2023/10/01 03:52:09;;;;;;;21.95;9.70;;;15.10;99.90;;;;;;6241090;23;20158;-75
2023/10/01 03:55:00;;;;;;;15.05;9.02;;;15.20;99.90;;;;;;6241417;23;20472;-75
2023/10/01 03:57:52;;;;;;;15.13;8.35;;;15.20;99.90;;;;;;6239948;23;20024;-75
2023/10/01 04:00:31;;;;;;;17.90;9.75;;;15.20;99.90;;;;;;6241243;23;20016;-74
2023/10/01 04:02:56;;;;;;;20.98;10.05;;;15.20;99.90;;;;;;6213984;23;20515;-74
2023/10/01 04:05:22;;;;;;;15.57;9.40;;;15.20;99.90;;;;;;6241338;23;20062;-74
2023/10/01 04:07:52;;;;;;;16.48;9.30;;;15.20;99.90;;;;;;6242080;23;20063;-75
2023/10/01 04:12:54;;;;;;;14.95;9.27;;;15.20;99.90;;;;;;6241929;23;20055;-74
2023/10/01 04:15:27;;;;;;;18.92;9.55;;;15.10;99.90;;;;;;6189310;23;20035;-75
2023/10/01 04:23:30;;;;;;;17.73;9.15;;;15.20;99.90;;;;;;6240940;23;20020;-75
2023/10/01 04:26:00;;;;;;;15.68;8.98;;;15.20;99.90;;;;;;6241158;23;20337;-74
2023/10/01 04:28:31;;;;;;;17.65;9.73;;;15.10;99.90;;;;;;6214231;23;20340;-75
2023/10/01 04:30:57;;;;;;;17.00;9.20;;;15.20;99.90;;;;;;6213809;23;20023;-74
2023/10/01 04:33:23;;;;;;;16.35;9.23;;;15.10;99.90;;;;;;6213774;23;20376;-75
2023/10/01 04:35:56;;;;;;;16.23;9.43;;;15.20;99.90;;;;;;6213999;23;20022;-75
2023/10/01 04:38:22;;;;;;;18.58;10.05;;;15.10;99.90;;;;;;6214133;23;20016;-74
2023/10/01 04:40:49;;;;;;;15.20;9.02;;;15.20;99.90;;;;;;6241078;23;20059;-75
2023/10/01 04:43:20;;;;;;;18.90;9.75;;;15.20;99.90;;;;;;6241331;23;20090;-75
2023/10/01 04:45:52;;;;;;;17.88;8.85;;;15.20;99.90;;;;;;6241121;23;20095;-75
2023/10/01 04:48:22;;;;;;;16.10;9.90;;;15.10;99.90;;;;;;6241254;23;20020;-75
2023/10/01 04:50:56;;;;;;;17.50;9.35;;;15.20;99.90;;;;;;6241084;23;20023;-74
2023/10/01 04:53:23;;;;;;;17.83;8.93;;;15.20;99.90;;;;;;6213918;23;20098;-74
2023/10/01 04:56:06;;;;;;;17.17;9.13;;;15.10;99.90;;;;;;6240500;23;20051;-71
2023/10/01 04:58:41;;;;;;;17.92;8.60;;;15.10;99.90;;;;;;6213692;23;20073;-72
2023/10/01 05:01:12;;;;;;;19.02;9.32;;;15.20;99.90;;;;;;6213772;23;20376;-71
2023/10/01 05:03:39;;;;;;;15.48;9.05;;;15.20;99.90;;;;;;6240502;23;20318;-72
2023/10/01 05:06:19;;;;;;;16.23;8.52;;;15.20;99.90;;;;;;6240933;23;20034;-71
2023/10/01 05:08:49;;;;;;;17.75;9.32;;;15.10;99.90;;;;;;6242296;23;20487;-72
2023/10/01 05:11:21;;;;;;;16.98;9.30;;;15.10;99.90;;;;;;6216557;23;20024;-72
2023/10/01 05:13:48;;;;;;;18.60;9.63;;;15.20;99.90;;;;;;6215388;23;20348;-71
2023/10/01 05:16:18;;;;;;;15.60;9.05;;;15.20;99.90;;;;;;6215049;23;20301;-71
2023/10/01 05:18:45;;;;;;;15.57;8.82;;;15.10;99.90;;;;;;6215436;23;20020;-70
2023/10/01 05:21:18;;;;;;;16.20;8.73;;;15.10;99.90;;;;;;6242710;23;20050;-70
2023/10/01 05:23:45;;;;;;;16.38;8.38;;;15.10;99.90;;;;;;6215168;23;20153;-72
2023/10/01 05:26:11;;;;;;;17.27;8.43;;;15.10;99.90;;;;;;6242308;23;20016;-70
2023/10/01 05:28:44;;;;;;;15.85;8.45;;;15.10;99.90;;;;;;6242663;23;20020;-70
2023/10/01 05:31:14;;;;;;;14.13;7.80;;;15.20;99.90;;;;;;6241886;23;20059;-72
2023/10/01 05:33:46;;;;;;;15.60;7.50;;;15.20;99.90;;;;;;6242690;23;20643;-70
2023/10/01 05:36:16;;;;;;;14.77;7.88;;;15.10;99.90;;;;;;6215120;23;20024;-70
2023/10/01 05:38:44;;;;;;;19.42;8.50;;;15.20;99.90;;;;;;6242476;23;20027;-70
2023/10/01 05:41:13;;;;;;;18.52;9.60;;;15.20;99.90;;;;;;6242652;23;20019;-70
2023/10/01 05:43:46;;;;;;;19.63;7.80;;;15.20;99.90;;;;;;6241744;23;20028;-70
2023/10/01 05:46:12;;;;;;;13.60;7.72;;;15.20;99.90;;;;;;6242413;23;20012;-70
2023/10/01 05:48:39;;;;;;;16.77;8.05;;;15.20;99.90;;;;;;6242247;23;20091;-70
2023/10/01 05:51:11;;;;;;;16.38;7.95;;;15.20;99.90;;;;;;6215167;23;20052;-70
2023/10/01 05:53:37;;;;;;;18.00;7.68;;;15.20;99.90;;;;;;6242322;23;20024;-70
2023/10/01 05:56:07;;;;;;;22.60;8.02;;;15.20;99.90;;;;;;6241794;23;20017;-70
2023/10/01 05:58:34;;;;;;;21.70;7.40;;;15.20;99.90;;;;;;6214902;23;20023;-72
2023/10/01 06:01:13;;;;;;;15.32;7.80;;;15.20;99.90;;;;;;6242471;23;20016;-70
2023/10/01 06:03:40;;;;;;;13.23;7.80;;;15.20;99.90;;;;;;6242464;23;20020;-71
2023/10/01 06:06:10;;;;;;;13.50;7.30;;;15.20;99.90;;;;;;6242120;23;20035;-70
2023/10/01 06:08:45;;;;;;;12.98;7.45;;;15.20;99.90;;;;;;6242093;23;20020;-70
2023/10/01 06:11:18;;;;;;;18.98;8.07;;;15.20;99.90;;;;;;6215010;23;20012;-70
2023/10/01 06:13:51;;;;;;;18.05;7.38;;;15.30;99.90;;;;;;6241259;23;20334;-70
2023/10/01 06:16:25;;;;;;;15.98;7.90;;;15.20;99.90;;;;;;6214431;23;20024;-70
2023/10/01 06:18:58;;;;;;;17.23;7.85;;;15.30;99.90;;;;;;6241491;23;20038;-70
2023/10/01 06:21:33;;;;;;;14.10;7.72;;;15.20;99.90;;;;;;6242239;23;20022;-70
2023/10/01 06:24:10;;;;;;;19.80;8.07;;;15.20;99.90;;;;;;6242315;23;20095;-71
2023/10/01 06:26:36;;;;;;;18.88;8.48;;;15.20;99.90;;;;;;6241983;23;20013;-69
2023/10/01 06:29:04;;;;;;;16.10;6.80;;;15.20;99.90;;;;;;6241462;23;20467;-71
2023/10/01 06:31:47;;;;;;;19.52;8.27;;;15.30;99.90;;;;;;6242282;23;20092;-71
2023/10/01 06:34:15;;;;;;;17.13;8.07;;;15.30;99.90;;;;;;6241879;23;20012;-70
2023/10/01 06:36:42;;;;;;;18.63;7.97;;;15.20;99.90;;;;;;6241605;23;20024;-70
2023/10/01 06:39:19;;;;;;;15.43;7.43;;;15.20;99.90;;;;;;6241497;23;20023;-71
2023/10/01 06:41:44;;;;;;;16.00;7.35;;;15.30;99.90;;;;;;6241766;23;20066;-71
2023/10/01 06:44:13;;;;;;;14.32;7.45;;;15.30;99.90;;;;;;6241989;23;20066;-72
2023/10/01 06:46:40;;;;;;;17.08;7.85;;;15.30;99.90;;;;;;6189555;23;20066;-73
2023/10/01 06:49:08;;;;;;;15.18;7.28;;;15.30;99.90;;;;;;6241576;23;20026;-72
2023/10/01 06:51:43;;;;;;;15.18;8.05;;;15.20;99.90;;;;;;6214456;23;20020;-72
2023/10/01 06:54:10;;;;;;;13.27;7.45;;;15.20;99.90;;;;;;6241244;23;20070;-72
2023/10/01 06:56:38;;;;;;;18.33;7.90;;;15.20;99.90;;;;;;6241158;23;20016;-72
2023/10/01 07:01:35;;;;;;;18.55;8.45;;;15.20;99.90;;;;;;6244892;23;20016;-69
2023/10/01 07:04:02;;;;;;;17.50;7.78;;;15.20;99.90;;;;;;6242855;23;20028;-72
2023/10/01 07:06:28;;;;;;;14.57;8.02;;;15.20;99.90;;;;;;6214692;23;20035;-72
2023/10/01 07:08:55;;;;;;;17.65;7.85;;;15.10;99.90;;;;;;6242305;23;20016;-72
2023/10/01 07:11:21;;;;;;;19.30;7.95;;;15.20;99.90;;;;;;6241608;23;20024;-70
2023/10/01 07:13:52;;;;;;;15.45;8.00;;;15.10;99.90;;;;;;6240611;23;20106;-71
2023/10/01 07:16:35;;;;;;;16.58;7.90;;;15.10;99.90;;;;;;6241299;23;20088;-71
2023/10/01 07:19:02;;;;;;;14.45;7.13;;;15.20;99.90;;;;;;6241010;23;20012;-71
2023/10/01 07:21:28;;;;;;;16.98;7.50;;;15.20;99.90;;;;;;6214128;23;20044;-70
2023/10/01 07:23:54;;;;;;;14.23;6.80;;;15.20;99.90;;;;;;6213998;23;20020;-70
2023/10/01 07:26:22;;;;;;;12.45;7.25;;;15.20;99.90;;;;;;6241066;23;20054;-71
2023/10/01 07:28:55;;;;;;;17.95;8.27;;;15.20;99.90;;;;;;6240803;23;20444;-72
2023/10/01 07:31:24;;;;;;;17.05;6.90;;;15.20;99.90;;;;;;6240796;23;20051;-71
2023/10/01 07:33:54;;;;;;;21.63;7.68;;;15.20;99.90;;;;;;6241229;23;20159;-71
2023/10/01 07:36:23;;;;;;;16.88;6.80;;;15.30;99.90;;;;;;6214198;23;20020;-71
2023/10/01 07:38:52;;;;;;;14.68;7.50;;;15.30;99.90;;;;;;6242809;23;20016;-71
2023/10/01 07:41:27;;;;;;;14.55;7.63;;;15.30;99.90;;;;;;6243443;23;20479;-71
2023/10/01 07:43:55;;;;;;;12.93;6.80;;;15.40;99.90;;;;;;6216089;23;20035;-73
2023/10/01 07:46:21;;;;;;;15.77;7.28;;;15.40;99.90;;;;;;6214754;23;20026;-71
2023/10/01 07:48:51;;;;;;;19.23;8.05;;;15.40;99.90;;;;;;6241307;23;20395;-71
2023/10/01 07:51:26;;;;;;;13.00;7.82;;;15.40;99.90;;;;;;6240900;23;20020;-71
2023/10/01 07:53:53;;;;;;;16.70;7.53;;;15.50;99.90;;;;;;6241157;23;20023;-71
2023/10/01 07:56:21;;;;;;;13.63;7.50;;;15.50;99.90;;;;;;6240601;23;20028;-70
2023/10/01 07:58:57;;;;;;;17.65;8.00;;;15.50;99.90;;;;;;6240715;23;20016;-70
2023/10/01 08:01:42;;;;;;;16.05;7.50;;;15.50;99.90;;;;;;6190879;23;20051;-70
2023/10/01 08:04:38;;;;;;;17.50;8.27;;;15.60;99.90;;;;;;6241448;23;20047;-71
2023/10/01 08:06:57;;;;;;;15.75;6.90;;;15.60;99.90;;;;;;6240688;23;20016;-72
2023/10/01 08:09:22;;;;;;;13.43;6.82;;;15.70;99.90;;;;;;6240800;23;20035;-71
2023/10/01 08:15:15;;;;;;;16.48;7.25;;;15.80;99.90;;;;;;6173341;23;20020;-71
2023/10/01 08:17:34;;;;;;;15.10;7.78;;;15.90;99.90;;;;;;6240709;23;20021;-72
2023/10/01 08:20:15;;;;;;;17.77;7.57;;;15.90;99.90;;;;;;6240742;23;20510;-71
2023/10/01 08:22:43;;;;;;;15.52;6.53;;;15.90;99.90;;;;;;6241110;23;20047;-71
2023/10/01 08:25:12;;;;;;;16.58;6.90;;;15.90;99.90;;;;;;6240234;23;20066;-71
2023/10/01 08:28:08;;;;;;;16.85;6.70;;;15.90;99.90;;;;;;6214674;23;20043;-71
2023/10/01 08:30:38;;;;;;;14.50;6.78;;;15.90;99.90;;;;;;6240688;23;20020;-71
2023/10/01 08:33:22;;;;;;;15.77;6.03;;;16.00;99.90;;;;;;6241163;23;20024;-71
2023/10/01 08:35:57;;;;;;;15.25;5.93;;;16.00;99.90;;;;;;6240338;23;20048;-70
2023/10/01 08:38:29;;;;;;;13.73;6.00;;;16.00;99.90;;;;;;6213515;23;20016;-71
2023/10/01 08:41:00;;;;;;;11.52;6.03;;;16.10;99.90;;;;;;6213751;23;20024;-70
2023/10/01 08:43:36;;;;;;;15.02;5.93;;;16.10;99.90;;;;;;6214895;23;20087;-70
2023/10/01 08:46:18;;;;;;;14.40;6.32;;;16.10;99.90;;;;;;6243072;23;20012;-70
2023/10/01 08:48:44;;;;;;;14.85;5.90;;;16.20;99.90;;;;;;6242814;23;20024;-71
2023/10/01 08:51:11;;;;;;;16.40;6.10;;;16.20;99.90;;;;;;6215653;23;20078;-70
2023/10/01 08:53:41;;;;;;;15.55;5.63;;;16.30;99.90;;;;;;6242651;23;20091;-70
2023/10/01 08:56:32;;;;;;;13.55;5.75;;;16.30;99.90;;;;;;6216354;23;20016;-70
2023/10/01 08:58:59;;;;;;;19.35;6.47;;;16.30;99.90;;;;;;6243158;23;20016;-70
2023/10/01 09:01:29;;;;;;;14.60;6.35;;;16.40;99.90;;;;;;6242899;23;20052;-70
2023/10/01 09:03:57;;;;;;;13.60;5.70;;;16.40;99.90;;;;;;6242201;23;20024;-71
2023/10/01 09:06:27;;;;;;;16.63;6.97;;;16.50;99.90;;;;;;6242589;23;20396;-70
2023/10/01 09:08:59;;;;;;;18.83;6.55;;;16.50;99.90;;;;;;6242349;23;20016;-71
2023/10/01 09:11:47;;;;;;;14.88;6.22;;;16.60;99.90;;;;;;6243097;23;20078;-70
2023/10/01 09:14:20;;;;;;;16.45;7.05;;;16.60;99.90;;;;;;6242314;23;20498;-70
2023/10/01 09:16:58;;;;;;;16.17;5.72;;;16.70;99.90;;;;;;6215411;23;20349;-71
2023/10/01 09:19:35;;;;;;;13.82;5.95;;;16.70;99.90;;;;;;6242140;23;20028;-71
2023/10/01 09:22:16;;;;;;;15.32;5.70;;;16.80;99.90;;;;;;6242062;23;20464;-71
2023/10/01 09:24:43;;;;;;;19.35;6.45;;;16.80;99.90;;;;;;6215508;23;20086;-71
2023/10/01 09:27:19;;;;;;;12.80;5.72;;;16.90;99.90;;;;;;6242234;23;20020;-71
2023/10/01 09:29:48;;;;;;;16.75;5.72;;;17.00;99.90;;;;;;6242541;23;20027;-71
2023/10/01 09:32:14;;;;;;;15.13;6.65;;;17.00;99.90;;;;;;6241894;23;20078;-70
2023/10/01 09:34:53;;;;;;;14.25;5.93;;;17.10;99.90;;;;;;6242381;23;20024;-71
2023/10/01 09:37:34;;;;;;;17.02;6.15;;;17.10;99.90;;;;;;6215255;23;20024;-71
2023/10/01 09:42:57;;;;;;;13.82;5.85;;;17.10;99.90;;;;;;6242326;23;20451;-71
2023/10/01 09:45:27;;;;;;;15.73;6.20;;;17.20;99.90;;;;;;6241908;23;20056;-71
2023/10/01 09:48:09;;;;;;;15.85;6.43;;;17.20;99.90;;;;;;6242029;23;20380;-71
2023/10/01 09:50:42;;;;;;;18.43;6.53;;;17.20;99.90;;;;;;6242267;23;20028;-70
2023/10/01 09:53:14;;;;;;;15.18;5.95;;;17.30;99.90;;;;;;6242437;23;20231;-71
2023/10/01 09:55:55;;;;;;;;;;;17.30;99.90;;;;;;6242746;23;20024;-70
2023/10/01 09:58:25;;;;;;;13.13;5.95;;;17.30;99.90;;;;;;6242362;23;20216;-70
2023/10/01 10:01:00;;;;;;;13.85;5.97;;;17.40;99.90;;;;;;6242317;23;20023;-71
2023/10/01 10:03:36;;;;;;;13.43;6.47;;;17.50;99.90;;;;;;6242025;23;20008;-71
2023/10/01 10:06:09;;;;;;;13.35;6.40;;;17.50;99.90;;;;;;6241682;23;20020;-70
2023/10/01 10:08:39;;;;;;;15.30;6.25;;;17.60;99.90;;;;;;6241674;23;20035;-71
2023/10/01 10:11:23;;;;;;;14.43;6.13;;;17.60;99.90;;;;;;6241757;23;20028;-70
2023/10/01 10:13:50;;;;;;;15.25;5.95;;;17.70;99.90;;;;;;6241863;23;20341;-70
2023/10/01 10:16:32;;;;;;;16.08;5.93;;;17.70;99.90;;;;;;6242088;23;20129;-71
2023/10/01 10:19:09;;;;;;;19.08;6.10;;;17.80;99.90;;;;;;6242294;23;20008;-70
2023/10/01 10:24:28;;;;;;;19.38;6.85;;;17.90;99.90;;;;;;6215006;23;20455;-71
2023/10/01 10:26:58;;;;;;;23.00;6.72;;;17.90;99.90;;;;;;6241781;23;20023;-71
2023/10/01 10:29:24;;;;;;;18.17;7.30;;;17.90;99.90;;;;;;6242198;23;20031;-71
2023/10/01 10:32:09;;;;;;;14.13;6.47;;;18.00;99.90;;;;;;6242318;23;20020;-71
2023/10/01 10:34:47;;;;;;;16.55;6.20;;;18.00;99.90;;;;;;6241365;23;20028;-71
2023/10/01 10:37:48;;;;;;;16.40;6.13;;;18.00;99.90;;;;;;6217699;23;20074;-71
2023/10/01 10:42:58;;;;;;;17.55;6.43;;;18.20;99.90;;;;;;6241892;23;20078;-71
2023/10/01 10:45:42;;;;;;;13.93;6.05;;;18.30;99.90;;;;;;6241997;23;20020;-71
2023/10/01 10:48:21;;;;;;;16.15;5.75;;;18.30;99.90;;;;;;6241536;23;20016;-71
2023/10/01 10:51:02;;;;;;;15.75;6.50;;;18.30;99.90;;;;;;6241635;23;20109;-70
2023/10/01 10:53:29;;;;;;;19.52;7.10;;;18.40;99.90;;;;;;6241443;23;20020;-71
2023/10/01 10:56:16;;;;;;;14.90;6.55;;;18.40;99.90;;;;;;6241767;23;20431;-71
2023/10/01 10:59:04;;;;;;;22.67;6.65;;;18.60;99.90;;;;;;6214271;23;20016;-70
2023/10/01 11:01:46;;;;;;;14.85;6.70;;;18.70;99.90;;;;;;6241340;23;20023;-71
2023/10/01 11:04:14;;;;;;;17.35;6.53;;;18.80;99.90;;;;;;6241588;23;20008;-71
2023/10/01 11:06:42;;;;;;;14.32;6.45;;;18.80;99.90;;;;;;6241397;23;20023;-71
2023/10/01 11:09:26;;;;;;;14.57;6.03;;;18.90;99.90;;;;;;6241468;23;20090;-71
2023/10/01 11:12:05;;;;;;;16.98;6.93;;;19.00;99.90;;;;;;6241473;23;20196;-71
2023/10/01 11:14:34;;;;;;;15.43;5.90;;;19.00;99.90;;;;;;6240791;23;20023;-70
2023/10/01 11:17:00;;;;;;;16.05;6.68;;;19.10;99.90;;;;;;6241504;23;20012;-70
2023/10/01 11:19:27;;;;;;;17.08;7.13;;;19.20;99.90;;;;;;6241214;23;20078;-72
2023/10/01 11:21:58;;;;;;;17.45;6.50;;;19.20;99.90;;;;;;6241372;23;20100;-70
2023/10/01 11:24:30;;;;;;;15.45;6.50;;;19.20;99.90;;;;;;6214180;23;20028;-70
2023/10/01 11:27:19;;;;;;;13.93;6.15;;;19.30;99.90;;;;;;6241202;23;20347;-70
2023/10/01 11:30:24;;;;;;;18.25;5.75;;;19.30;99.90;;;;;;6241574;23;20027;-70
2023/10/01 11:35:40;;;;;;;15.75;6.15;;;19.40;99.90;;;;;;6241286;23;20027;-70
2023/10/01 11:38:08;;;;;;;15.95;6.38;;;19.50;99.90;;;;;;6241402;23;20060;-70
2023/10/01 11:43:38;;;;;;;18.55;7.10;;;19.50;99.90;;;;;;6213841;23;20256;-70
2023/10/01 11:46:24;;;;;;;17.95;6.10;;;19.60;99.90;;;;;;6241090;23;20388;-70
2023/10/01 11:49:17;;;;;;;16.35;6.40;;;19.70;99.90;;;;;;6213878;23;20415;-70
2023/10/01 11:51:45;;;;;;;17.98;5.97;;;19.70;99.90;;;;;;6241159;23;20051;-70
2023/10/01 11:54:14;;;;;;;13.80;6.40;;;19.70;99.90;;;;;;6241039;23;20376;-70
2023/10/01 11:56:42;;;;;;;18.73;6.18;;;19.70;99.90;;;;;;6240999;23;20023;-71
2023/10/01 11:59:10;;;;;;;15.95;6.18;;;19.80;99.90;;;;;;6214145;23;20077;-70
2023/10/01 12:01:47;;;;;;;15.98;6.00;;;19.80;99.90;;;;;;6241095;23;20023;-71
2023/10/01 12:07:22;;;;;;;19.33;5.68;;;19.90;99.90;;;;;;6173692;23;20077;-70
2023/10/01 12:09:52;;;;;;;13.90;5.60;;;19.90;99.90;;;;;;6241162;23;20024;-71
2023/10/01 12:12:28;;;;;;;15.88;5.10;;;19.90;99.90;;;;;;6241045;23;20731;-71
2023/10/01 12:15:33;;;;;;;14.45;5.65;;;20.00;99.90;;;;;;6240481;23;20044;-71
2023/10/01 12:17:46;;;;;;;15.05;5.85;;;20.00;99.90;;;;;;6239757;23;20471;-71
2023/10/01 12:20:29;;;;;;;14.70;5.35;;;20.10;99.90;;;;;;6241170;23;20013;-71
2023/10/01 12:23:10;;;;;;;18.77;6.03;;;20.10;99.90;;;;;;6240916;23;20337;-71
2023/10/01 12:26:00;;;;;;;11.55;5.35;;;20.20;99.90;;;;;;6241285;23;20008;-71
2023/10/01 12:28:29;;;;;;;15.82;5.57;;;20.20;99.90;;;;;;6214122;23;20433;-71
2023/10/01 12:31:08;;;;;;;16.55;6.05;;;20.30;99.90;;;;;;6240718;23;20063;-71
2023/10/01 12:33:40;;;;;;;15.23;6.10;;;20.30;99.90;;;;;;6241367;23;20008;-71
2023/10/01 12:41:56;;;;;;;13.00;5.40;;;20.40;99.90;;;;;;6241350;23;20024;-71
2023/10/01 12:44:33;;;;;;;14.73;5.47;;;20.40;99.90;;;;;;6217686;23;20054;-71
2023/10/01 12:47:06;;;;;;;12.32;5.60;;;20.50;99.90;;;;;;6243652;23;20035;-71
2023/10/01 12:49:33;;;;;;;15.80;5.45;;;20.50;99.90;;;;;;6242130;23;20016;-71
2023/10/01 12:52:00;;;;;;;13.90;5.40;;;20.50;99.90;;;;;;6240808;23;20016;-71
2023/10/01 12:54:26;;;;;;;15.88;5.68;;;20.60;99.90;;;;;;6240912;23;20329;-71
2023/10/01 12:59:43;;;;;;;14.43;5.70;;;20.70;99.90;;;;;;6240348;23;20456;-71
2023/10/01 13:05:27;;;;;;;16.02;5.90;;;20.70;99.90;;;;;;6214696;23;20117;-71
2023/10/01 13:07:57;;;;;;;13.90;5.55;;;20.70;99.90;;;;;;6241823;23;20039;-71
2023/10/01 13:10:37;;;;;;;11.95;4.35;;;20.80;99.90;;;;;;6241616;23;20388;-71
2023/10/01 13:13:05;;;;;;;9.45;4.63;;;20.80;99.90;;;;;;6241360;23;20023;-70
2023/10/01 13:15:33;;;;;;;11.30;5.05;;;20.80;99.90;;;;;;6240172;23;20020;-71
2023/10/01 13:18:01;;;;;;;10.75;4.82;;;20.80;99.90;;;;;;6240600;23;20035;-71
2023/10/01 13:20:31;;;;;;;9.00;3.92;;;20.90;99.90;;;;;;6240933;23;20012;-71
2023/10/01 13:23:06;;;;;;;11.18;5.55;;;20.80;99.90;;;;;;6213663;23;20026;-71
2023/10/01 13:25:36;;;;;;;13.02;5.13;;;20.80;99.90;;;;;;6240981;23;20051;-71
2023/10/01 13:28:04;;;;;;;12.82;5.20;;;20.80;99.90;;;;;;6240800;23;20445;-71
2023/10/01 13:33:25;;;;;;;11.73;4.78;;;20.90;99.90;;;;;;6242941;23;20405;-71
2023/10/01 13:35:57;;;;;;;11.45;4.80;;;20.90;99.90;;;;;;6215470;23;20020;-71
2023/10/01 13:38:27;;;;;;;;;;;20.90;99.90;;;;;;6215951;23;20406;-71
2023/10/01 14:11:06;;;;;;;11.02;4.90;;;21.10;99.90;;;;;;6242320;23;20317;-71
2023/10/01 14:13:41;;;;;;;13.43;5.32;;;21.20;99.90;;;;;;6242350;23;20433;-71
2023/10/01 14:16:17;;;;;;;10.38;4.85;;;21.10;99.90;;;;;;6242204;23;20026;-71
2023/10/01 14:19:13;;;;;;;12.43;5.30;;;21.20;99.90;;;;;;6241862;23;20364;-71
2023/10/01 14:21:40;;;;;;;12.30;5.10;;;21.20;99.90;;;;;;6242370;23;20435;-70
2023/10/01 14:24:21;;;;;;;12.60;5.07;;;21.20;99.90;;;;;;6242420;23;20024;-71
2023/10/01 14:26:50;;;;;;;14.93;5.25;;;21.20;99.90;;;;;;6242029;23;20022;-71
2023/10/01 14:29:22;;;;;;;11.00;4.40;;;21.20;99.90;;;;;;6215381;23;20393;-71
2023/10/01 14:31:52;;;;;;;13.90;5.97;;;21.20;99.90;;;;;;6215401;23;20094;-71
2023/10/01 14:34:20;;;;;;;11.40;4.70;;;21.10;99.90;;;;;;6242816;23;20016;-71
2023/10/01 14:36:47;;;;;;;8.63;4.90;;;21.10;99.90;;;;;;6215594;23;20024;-71
2023/10/01 14:39:14;;;;;;;12.02;5.10;;;21.10;99.90;;;;;;6242441;23;20010;-71
2023/10/01 14:41:45;;;;;;;11.60;5.00;;;21.10;99.90;;;;;;6242000;23;20027;-71